Time;durP1;ratioP1;P1;durP2;ratioP2;P2;SDS_P1;SDS_P2;PMS_P1;PMS_P2;Temp;Humidity;BMP_temperature;BMP_pressure;BME280_temperature;BME280_humidity;BME280_pressure;Samples;Min_cycle;Max_cycle;Signal;HPM_P1;HPM_P2
2021/10/08 00:02:17;;;;;;;49.23;23.23;;;12.90;85.90;;;;;;4958435;28;20284;-92
2021/10/08 00:04:43;;;;;;;43.40;24.27;;;12.90;86.00;;;;;;4941494;29;20718;-92
2021/10/08 00:07:08;;;;;;;34.70;21.70;;;12.80;86.00;;;;;;4940826;29;20420;-92
2021/10/08 00:09:35;;;;;;;33.03;21.83;;;12.80;85.90;;;;;;4941554;29;20184;-92
2021/10/08 00:12:00;;;;;;;37.17;23.60;;;12.80;86.20;;;;;;4940983;29;20551;-92
2021/10/08 00:14:27;;;;;;;39.70;22.13;;;12.90;86.20;;;;;;4940806;29;20223;-93
2021/10/08 00:16:53;;;;;;;36.80;23.17;;;13.00;86.00;;;;;;4941194;29;20169;-93
2021/10/08 00:19:19;;;;;;;44.10;22.67;;;13.00;85.50;;;;;;4941352;29;20628;-92
2021/10/08 00:21:45;;;;;;;41.30;23.33;;;13.00;85.10;;;;;;4941016;29;20207;-93
2021/10/08 00:24:12;;;;;;;35.05;21.77;;;13.00;84.80;;;;;;4941156;29;20204;-93
2021/10/08 00:26:40;;;;;;;40.05;23.27;;;13.00;84.70;;;;;;4940954;29;20232;-92
2021/10/08 00:29:09;;;;;;;36.88;22.80;;;13.00;84.40;;;;;;4960684;28;20340;-92
2021/10/08 00:31:35;;;;;;;37.95;24.33;;;13.00;84.20;;;;;;4924911;29;20310;-92
2021/10/08 00:34:01;;;;;;;47.40;24.30;;;12.90;84.50;;;;;;4939721;29;20212;-92
2021/10/08 00:36:27;;;;;;;41.50;24.15;;;12.90;84.70;;;;;;4940069;29;20542;-93
2021/10/08 00:38:53;;;;;;;46.87;27.17;;;12.80;84.70;;;;;;4940334;29;20192;-92
2021/10/08 00:41:22;;;;;;;57.07;27.77;;;12.70;85.10;;;;;;4956642;28;20464;-93
2021/10/08 00:43:48;;;;;;;51.92;26.60;;;12.60;85.50;;;;;;4939793;29;20200;-92
2021/10/08 00:46:14;;;;;;;52.03;24.88;;;12.70;86.00;;;;;;4939168;29;20184;-92
2021/10/08 00:48:41;;;;;;;51.13;25.03;;;12.70;85.90;;;;;;4939307;29;20196;-92
2021/10/08 00:51:06;;;;;;;49.28;28.42;;;12.80;85.40;;;;;;4938982;29;20456;-92
2021/10/08 00:53:33;;;;;;;44.80;26.43;;;12.80;85.00;;;;;;4938849;29;20217;-92
2021/10/08 00:56:01;;;;;;;57.05;27.13;;;12.70;84.90;;;;;;4939614;29;20793;-92
2021/10/08 00:58:29;;;;;;;45.35;26.45;;;12.60;85.10;;;;;;4939424;29;20192;-92
2021/10/08 01:00:55;;;;;;;55.97;29.70;;;12.60;85.30;;;;;;4938699;29;20521;-92
2021/10/08 01:03:22;;;;;;;50.73;30.03;;;12.50;85.80;;;;;;4924476;29;20299;-92
2021/10/08 01:05:48;;;;;;;60.05;32.05;;;12.40;87.00;;;;;;4938248;29;20246;-92
2021/10/08 01:08:15;;;;;;;50.88;31.35;;;12.60;86.40;;;;;;4938927;29;20212;-92
2021/10/08 01:10:42;;;;;;;60.75;30.52;;;12.50;86.10;;;;;;4939357;29;20181;-92
2021/10/08 01:13:10;;;;;;;65.25;30.23;;;12.50;86.00;;;;;;4938509;29;20248;-91
2021/10/08 01:15:36;;;;;;;55.78;30.40;;;12.50;86.00;;;;;;4939820;29;20244;-92
2021/10/08 01:18:03;;;;;;;50.40;28.40;;;12.50;85.90;;;;;;4938069;29;20184;-92
2021/10/08 01:20:30;;;;;;;67.50;32.47;;;12.40;86.10;;;;;;4938851;29;20255;-92
2021/10/08 01:22:59;;;;;;;59.58;30.35;;;12.50;86.20;;;;;;4939775;29;20691;-91
2021/10/08 01:25:27;;;;;;;57.95;30.08;;;12.60;86.00;;;;;;4939148;29;20271;-91
2021/10/08 01:27:53;;;;;;;46.22;27.30;;;12.60;85.60;;;;;;4939251;29;20197;-92
2021/10/08 01:30:19;;;;;;;59.38;28.55;;;12.60;85.20;;;;;;4939655;29;20184;-93
2021/10/08 01:32:47;;;;;;;51.88;29.10;;;12.50;85.30;;;;;;4924322;29;20216;-92
2021/10/08 01:35:13;;;;;;;57.45;31.90;;;12.40;85.50;;;;;;4939688;29;20184;-92
2021/10/08 01:37:39;;;;;;;58.40;29.92;;;12.30;85.70;;;;;;4938734;29;20276;-93
2021/10/08 01:40:06;;;;;;;56.77;31.37;;;12.20;86.10;;;;;;4938527;29;20207;-93
2021/10/08 01:42:31;;;;;;;65.65;33.03;;;12.30;86.40;;;;;;4939209;28;20197;-93
2021/10/08 01:44:59;;;;;;;70.47;30.87;;;12.20;86.80;;;;;;4938722;29;20209;-92
2021/10/08 01:47:25;;;;;;;63.10;33.65;;;12.30;87.00;;;;;;4940578;29;20177;-93
2021/10/08 01:49:51;;;;;;;57.05;30.02;;;12.40;86.80;;;;;;4938906;29;20243;-92
2021/10/08 01:52:17;;;;;;;60.37;30.93;;;12.30;86.50;;;;;;4938869;28;20177;-93
2021/10/08 01:54:43;;;;;;;65.97;33.33;;;12.30;86.30;;;;;;4956522;28;20471;-92
2021/10/08 01:57:09;;;;;;;64.38;34.15;;;12.30;86.20;;;;;;4939828;29;20208;-93
2021/10/08 01:59:35;;;;;;;63.10;34.40;;;12.20;86.40;;;;;;4941534;29;20247;-93
2021/10/08 02:02:00;;;;;;;64.50;30.80;;;12.20;86.80;;;;;;4943148;29;20275;-93
2021/10/08 02:04:26;;;;;;;69.50;33.33;;;12.30;86.70;;;;;;4943664;29;20211;-93
2021/10/08 02:06:52;;;;;;;63.03;30.60;;;12.30;87.00;;;;;;4941034;29;20279;-91
2021/10/08 02:09:18;;;;;;;61.33;31.07;;;12.40;85.80;;;;;;4938595;29;20639;-92
2021/10/08 02:11:44;;;;;;;67.70;31.90;;;12.40;85.40;;;;;;4938472;29;20184;-92
2021/10/08 02:14:11;;;;;;;66.30;33.30;;;12.20;85.20;;;;;;4939651;29;20586;-92
2021/10/08 02:16:36;;;;;;;64.22;33.17;;;12.10;85.60;;;;;;4939100;29;20545;-93
2021/10/08 02:19:03;;;;;;;68.07;31.05;;;12.10;85.60;;;;;;4956115;29;20185;-93
2021/10/08 02:21:29;;;;;;;70.63;32.78;;;12.10;85.70;;;;;;4938450;29;20180;-92
2021/10/08 02:23:55;;;;;;;65.40;32.28;;;12.10;85.60;;;;;;4938611;29;20285;-91
2021/10/08 02:26:21;;;;;;;67.07;33.80;;;12.10;85.50;;;;;;4939470;29;20275;-92
2021/10/08 02:28:47;;;;;;;63.85;32.55;;;12.20;85.40;;;;;;4939425;29;20180;-92
2021/10/08 02:31:13;;;;;;;67.43;31.50;;;12.10;85.00;;;;;;4941233;29;20188;-92
2021/10/08 02:33:39;;;;;;;60.10;31.10;;;12.10;85.00;;;;;;4941335;29;20471;-91
2021/10/08 02:36:06;;;;;;;62.55;33.95;;;12.00;85.00;;;;;;4941383;29;20428;-91
2021/10/08 02:38:33;;;;;;;71.15;34.80;;;11.90;85.40;;;;;;4941472;29;20180;-91
2021/10/08 02:40:59;;;;;;;84.90;38.90;;;11.80;86.00;;;;;;4941828;29;20184;-91
2021/10/08 02:43:25;;;;;;;75.10;36.17;;;11.70;86.40;;;;;;4941581;29;20214;-92
2021/10/08 02:45:51;;;;;;;81.00;36.87;;;11.80;86.90;;;;;;4942011;29;20299;-91
2021/10/08 02:48:17;;;;;;;74.95;36.40;;;11.80;86.80;;;;;;4941681;29;20423;-92
2021/10/08 02:50:43;;;;;;;62.73;35.40;;;11.90;86.80;;;;;;4941276;29;20189;-92
2021/10/08 02:53:09;;;;;;;86.53;39.00;;;11.80;86.50;;;;;;4940970;29;20472;-92
2021/10/08 02:55:35;;;;;;;80.15;37.25;;;11.60;86.60;;;;;;4941844;29;20440;-91
2021/10/08 02:58:00;;;;;;;77.13;40.10;;;11.60;87.00;;;;;;4941294;29;20597;-92
2021/10/08 03:00:26;;;;;;;87.20;42.30;;;11.60;87.20;;;;;;4941166;29;20187;-92
2021/10/08 03:02:52;;;;;;;77.03;38.83;;;11.70;87.30;;;;;;4958812;28;20514;-92
2021/10/08 03:05:18;;;;;;;90.10;36.57;;;11.70;87.10;;;;;;4958626;29;20181;-91
2021/10/08 03:07:44;;;;;;;91.77;36.90;;;11.90;86.70;;;;;;4941120;29;20674;-91
2021/10/08 03:10:11;;;;;;;89.07;36.30;;;11.90;86.00;;;;;;4940853;29;21208;-91
2021/10/08 03:12:38;;;;;;;93.82;36.15;;;11.80;85.70;;;;;;4940437;28;20568;-91
2021/10/08 03:15:05;;;;;;;89.18;38.13;;;11.60;86.00;;;;;;4941261;29;20240;-91
2021/10/08 03:17:30;;;;;;;91.05;41.00;;;11.60;86.50;;;;;;4941269;29;20188;-92
2021/10/08 03:19:57;;;;;;;81.10;38.47;;;11.50;86.70;;;;;;4941242;29;20177;-91
2021/10/08 03:22:22;;;;;;;94.28;39.50;;;11.50;87.10;;;;;;4940560;28;20184;-92
2021/10/08 03:28:10;;;;;;;85.10;40.60;;;11.30;87.40;;;;;;4958389;29;20228;-92
2021/10/08 03:30:36;;;;;;;88.40;38.87;;;11.50;87.50;;;;;;4944802;29;20636;-92
2021/10/08 03:33:02;;;;;;;95.00;39.27;;;11.50;87.30;;;;;;4958662;28;20711;-92
2021/10/08 03:35:27;;;;;;;90.07;40.37;;;11.40;87.10;;;;;;4926792;29;20838;-92
2021/10/08 03:38:00;;;;;;;90.63;39.53;;;11.50;87.10;;;;;;4940997;29;20927;-92
2021/10/08 03:40:28;;;;;;;98.72;41.28;;;11.60;86.60;;;;;;4940869;29;20183;-92
2021/10/08 03:42:56;;;;;;;80.80;38.25;;;11.60;86.20;;;;;;4940443;29;20220;-92
2021/10/08 03:45:23;;;;;;;89.50;38.47;;;11.70;86.00;;;;;;4957605;28;20253;-92
2021/10/08 03:48:07;;;;;;;90.97;41.60;;;11.70;85.70;;;;;;4940619;29;20660;-91
2021/10/08 03:50:32;;;;;;;88.65;40.30;;;11.60;85.50;;;;;;4940934;29;20188;-93
2021/10/08 03:52:59;;;;;;;98.40;37.83;;;11.70;85.30;;;;;;4941084;29;20212;-92
2021/10/08 03:55:24;;;;;;;75.28;39.00;;;11.70;85.00;;;;;;4941112;29;20180;-92
2021/10/08 03:57:50;;;;;;;94.23;35.10;;;11.60;84.80;;;;;;4940913;29;20184;-92
2021/10/08 04:00:16;;;;;;;81.87;34.87;;;11.60;84.90;;;;;;4940854;29;20652;-92
2021/10/08 04:02:42;;;;;;;82.77;37.23;;;11.60;84.90;;;;;;4940006;29;20444;-92
2021/10/08 04:05:08;;;;;;;83.60;35.30;;;11.50;85.00;;;;;;4958043;29;20416;-92
2021/10/08 04:07:34;;;;;;;77.57;38.78;;;11.40;85.00;;;;;;4941379;29;20185;-93
2021/10/08 04:10:00;;;;;;;87.05;37.70;;;11.40;85.00;;;;;;4941182;29;20271;-92
2021/10/08 04:12:26;;;;;;;78.80;36.43;;;11.50;85.00;;;;;;4941049;28;20558;-92
2021/10/08 04:14:52;;;;;;;77.68;38.80;;;11.50;84.80;;;;;;4940995;29;20524;-93
2021/10/08 04:17:18;;;;;;;80.40;38.10;;;11.40;84.80;;;;;;4940855;29;20184;-92
2021/10/08 04:19:43;;;;;;;85.70;41.90;;;11.30;85.30;;;;;;4957809;29;20177;-92
2021/10/08 04:22:09;;;;;;;96.57;39.10;;;11.10;85.90;;;;;;4939901;29;20184;-92
2021/10/08 04:24:35;;;;;;;80.70;38.87;;;11.20;86.50;;;;;;4940346;29;20291;-92
2021/10/08 04:27:01;;;;;;;89.93;39.13;;;11.20;86.50;;;;;;4940439;29;20198;-92
2021/10/08 04:29:26;;;;;;;96.83;42.17;;;11.30;86.40;;;;;;4941139;29;20235;-93
2021/10/08 04:31:52;;;;;;;94.43;41.80;;;11.40;86.00;;;;;;4942240;29;20197;-93
2021/10/08 04:34:18;;;;;;;95.30;43.03;;;11.30;86.00;;;;;;4941565;29;20214;-93
2021/10/08 04:36:43;;;;;;;101.33;42.40;;;11.10;86.40;;;;;;4940910;29;20185;-93
2021/10/08 04:39:09;;;;;;;110.47;42.30;;;11.10;86.80;;;;;;4940467;29;20212;-93
2021/10/08 04:41:35;;;;;;;88.17;42.00;;;11.10;86.80;;;;;;4939659;29;20243;-93
2021/10/08 04:44:01;;;;;;;94.07;39.53;;;11.20;86.70;;;;;;4940477;28;20546;-92
2021/10/08 04:46:27;;;;;;;104.10;42.47;;;11.30;86.40;;;;;;4957072;29;20176;-92
2021/10/08 04:48:52;;;;;;;108.47;42.57;;;11.40;86.10;;;;;;4940138;29;20242;-92
2021/10/08 04:51:18;;;;;;;74.60;39.23;;;11.50;85.60;;;;;;4938601;29;20712;-91
2021/10/08 04:53:44;;;;;;;90.73;40.67;;;11.60;84.90;;;;;;4943148;29;20212;-91
2021/10/08 04:56:10;;;;;;;84.43;38.90;;;11.50;84.50;;;;;;4943201;29;20184;-92
2021/10/08 04:58:35;;;;;;;83.72;39.78;;;11.50;84.40;;;;;;4943426;29;20275;-93
2021/10/08 05:01:02;;;;;;;82.30;39.27;;;11.40;84.20;;;;;;4929333;29;20184;-92
2021/10/08 05:03:28;;;;;;;101.05;42.35;;;11.40;84.70;;;;;;4963487;28;20566;-93
2021/10/08 05:05:54;;;;;;;122.13;44.23;;;11.30;85.20;;;;;;4947554;29;20249;-93
2021/10/08 05:08:21;;;;;;;112.47;42.60;;;11.40;85.40;;;;;;4947125;29;20203;-92
2021/10/08 05:10:48;;;;;;;104.45;41.75;;;11.50;85.20;;;;;;4948173;29;20496;-92
2021/10/08 05:13:14;;;;;;;122.00;45.00;;;11.40;85.20;;;;;;4946518;29;20212;-92
2021/10/08 05:15:40;;;;;;;120.68;41.28;;;11.40;85.30;;;;;;4945270;29;20184;-92
2021/10/08 05:18:05;;;;;;;120.45;45.40;;;11.50;85.50;;;;;;4943863;29;20698;-92
2021/10/08 05:20:31;;;;;;;109.90;42.20;;;11.50;85.70;;;;;;4943189;29;20176;-93
2021/10/08 05:22:58;;;;;;;104.82;42.00;;;11.50;85.50;;;;;;4942529;29;20208;-93
2021/10/08 05:25:23;;;;;;;121.63;43.53;;;11.40;85.50;;;;;;4942282;29;20665;-92
2021/10/08 05:27:49;;;;;;;113.23;41.37;;;11.30;86.00;;;;;;4941617;29;20247;-92
2021/10/08 05:30:15;;;;;;;137.97;45.17;;;11.40;86.30;;;;;;4941314;29;20629;-93
2021/10/08 05:32:42;;;;;;;122.30;43.60;;;11.30;87.00;;;;;;4943559;29;20463;-94
2021/10/08 05:35:10;;;;;;;130.27;42.33;;;11.40;87.10;;;;;;4964613;28;20267;-94
2021/10/08 05:37:35;;;;;;;122.28;43.40;;;11.40;87.10;;;;;;4949005;29;20478;-94
2021/10/08 05:40:03;;;;;;;114.13;44.90;;;11.50;86.80;;;;;;4945303;29;20196;-94
2021/10/08 05:42:28;;;;;;;124.43;43.97;;;11.50;86.50;;;;;;4941096;28;20428;-93
2021/10/08 05:44:54;;;;;;;116.43;41.50;;;11.30;86.60;;;;;;4965697;28;20227;-95
2021/10/08 05:47:20;;;;;;;117.47;44.57;;;11.30;86.60;;;;;;4970825;28;20655;-95
2021/10/08 05:49:46;;;;;;;102.00;39.77;;;11.30;87.10;;;;;;4966942;28;20247;-95
2021/10/08 05:52:12;;;;;;;98.03;41.33;;;11.30;87.20;;;;;;4947040;29;20539;-93
2021/10/08 05:54:38;;;;;;;99.33;39.27;;;11.30;87.50;;;;;;4941366;29;20243;-94
2021/10/08 05:57:05;;;;;;;109.00;39.80;;;11.30;87.50;;;;;;4943253;29;20435;-93
2021/10/08 05:59:31;;;;;;;94.07;41.38;;;11.30;87.00;;;;;;4942979;29;20428;-94
2021/10/08 06:01:57;;;;;;;93.85;36.22;;;11.30;86.20;;;;;;4942489;29;20187;-93
2021/10/08 06:04:23;;;;;;;98.97;38.50;;;11.40;86.10;;;;;;4946146;29;20203;-93
2021/10/08 06:06:48;;;;;;;99.67;34.60;;;11.50;85.90;;;;;;4949632;29;20490;-94
2021/10/08 06:09:14;;;;;;;77.07;36.40;;;11.50;85.50;;;;;;4946360;29;20198;-94
2021/10/08 06:11:40;;;;;;;112.03;39.57;;;11.40;85.20;;;;;;4946134;29;20188;-93
2021/10/08 06:14:05;;;;;;;93.40;38.57;;;11.30;85.70;;;;;;4947527;29;20254;-93
2021/10/08 06:16:31;;;;;;;89.40;34.23;;;11.40;85.80;;;;;;4946109;29;20187;-93
2021/10/08 06:18:57;;;;;;;110.57;36.47;;;11.40;85.80;;;;;;4962675;28;20176;-94
2021/10/08 06:21:24;;;;;;;93.57;36.20;;;11.50;85.90;;;;;;4945226;29;20196;-93
2021/10/08 06:23:50;;;;;;;87.80;35.60;;;11.60;85.80;;;;;;4945570;29;20208;-94
2021/10/08 06:26:15;;;;;;;83.53;34.67;;;11.60;85.40;;;;;;4945438;29;20268;-94
2021/10/08 06:28:41;;;;;;;75.43;35.07;;;11.50;85.30;;;;;;4944995;29;20447;-94
2021/10/08 06:31:07;;;;;;;85.57;35.83;;;11.40;85.70;;;;;;4946932;29;20432;-94
2021/10/08 06:33:33;;;;;;;81.13;35.30;;;11.40;86.10;;;;;;4947915;29;20224;-94
2021/10/08 06:35:59;;;;;;;79.17;37.47;;;11.20;86.00;;;;;;4947345;29;20923;-93
2021/10/08 06:38:24;;;;;;;74.78;31.27;;;11.30;86.20;;;;;;4947764;29;20208;-94
2021/10/08 06:40:50;;;;;;;88.53;34.63;;;11.20;86.00;;;;;;4945676;29;20184;-93
2021/10/08 06:43:16;;;;;;;78.80;34.00;;;11.10;86.20;;;;;;4946782;29;20255;-94
2021/10/08 06:45:42;;;;;;;67.10;30.70;;;11.10;86.50;;;;;;4947184;29;20204;-93
2021/10/08 06:48:08;;;;;;;86.13;32.92;;;11.20;86.00;;;;;;4945886;29;20201;-94
2021/10/08 06:50:34;;;;;;;64.67;29.43;;;11.30;85.30;;;;;;4949309;29;20187;-94
2021/10/08 06:52:59;;;;;;;87.10;29.35;;;11.30;85.00;;;;;;4946938;29;20208;-94
2021/10/08 06:55:25;;;;;;;74.00;30.70;;;11.40;85.30;;;;;;4946027;29;20184;-93
2021/10/08 06:57:51;;;;;;;69.43;28.80;;;11.40;84.70;;;;;;4945405;29;20185;-93
2021/10/08 07:00:16;;;;;;;65.67;26.20;;;11.50;84.30;;;;;;4946514;29;20184;-93
2021/10/08 07:03:00;;;;;;;57.67;27.10;;;11.50;83.70;;;;;;4945269;29;20201;-93
2021/10/08 07:05:27;;;;;;;55.90;25.02;;;11.40;83.40;;;;;;4944573;29;20979;-91
2021/10/08 07:07:54;;;;;;;66.53;26.52;;;11.40;83.30;;;;;;4943170;29;20640;-91
2021/10/08 07:10:21;;;;;;;48.47;25.23;;;11.30;83.30;;;;;;4943346;29;20181;-91
2021/10/08 07:12:47;;;;;;;57.63;24.83;;;11.50;83.40;;;;;;4942763;29;20638;-90
2021/10/08 07:15:19;;;;;;;52.83;24.80;;;11.60;82.80;;;;;;4942720;29;20577;-91
2021/10/08 07:17:50;;;;;;;54.20;26.10;;;11.70;82.40;;;;;;4942263;29;20197;-91
2021/10/08 07:20:21;;;;;;;56.20;25.65;;;11.70;82.30;;;;;;4941715;29;20601;-92
2021/10/08 07:22:47;;;;;;;53.92;26.90;;;11.60;82.30;;;;;;4941005;29;20204;-92
2021/10/08 07:25:39;;;;;;;51.80;26.48;;;11.80;82.10;;;;;;4941524;29;20218;-92
2021/10/08 07:28:04;;;;;;;57.63;25.17;;;11.80;81.80;;;;;;4942065;29;20578;-91
2021/10/08 07:30:30;;;;;;;52.10;24.70;;;11.70;82.00;;;;;;4942650;29;20176;-91
2021/10/08 07:32:56;;;;;;;59.20;27.00;;;11.80;82.20;;;;;;4940589;29;20208;-92
2021/10/08 07:35:36;;;;;;;56.17;27.20;;;11.90;82.30;;;;;;4941286;29;20184;-92
2021/10/08 07:38:02;;;;;;;54.95;25.33;;;11.90;81.80;;;;;;4942030;29;20413;-91
2021/10/08 07:40:28;;;;;;;60.77;25.60;;;11.80;81.90;;;;;;4941479;29;20260;-92
2021/10/08 07:42:54;;;;;;;54.08;24.33;;;11.90;82.20;;;;;;4941822;29;20205;-91
2021/10/08 07:45:20;;;;;;;59.03;28.70;;;12.10;81.70;;;;;;4941654;29;20208;-92
2021/10/08 07:47:46;;;;;;;60.07;24.37;;;12.30;81.20;;;;;;4941148;29;20661;-92
2021/10/08 07:50:13;;;;;;;53.80;24.80;;;12.20;80.90;;;;;;4941235;29;20188;-91
2021/10/08 07:52:39;;;;;;;52.55;24.30;;;12.10;80.50;;;;;;4941048;29;20903;-92
2021/10/08 07:55:06;;;;;;;45.57;24.53;;;12.20;80.10;;;;;;4941080;29;20185;-91
2021/10/08 07:57:32;;;;;;;54.97;25.35;;;12.10;80.00;;;;;;4940807;29;20216;-92
2021/10/08 07:59:58;;;;;;;46.47;22.47;;;12.20;80.60;;;;;;4940702;29;20254;-92
2021/10/08 08:02:28;;;;;;;43.92;22.00;;;12.40;80.20;;;;;;4957822;28;20292;-92
2021/10/08 08:04:55;;;;;;;48.80;26.45;;;12.50;79.80;;;;;;4940863;29;20208;-91
2021/10/08 08:07:21;;;;;;;44.83;24.65;;;12.50;79.20;;;;;;4940676;29;20183;-92
2021/10/08 08:09:47;;;;;;;50.60;24.27;;;12.60;78.80;;;;;;4941225;29;20180;-92
2021/10/08 08:12:13;;;;;;;44.47;24.27;;;12.50;78.70;;;;;;4940192;29;20184;-92
2021/10/08 08:14:38;;;;;;;47.37;23.90;;;12.50;78.90;;;;;;4941084;29;20625;-92
2021/10/08 08:17:04;;;;;;;39.60;24.03;;;12.60;79.00;;;;;;4942089;29;20672;-91
2021/10/08 08:19:30;;;;;;;48.17;24.17;;;12.70;79.40;;;;;;4940479;29;20263;-91
2021/10/08 08:21:56;;;;;;;40.53;22.50;;;12.80;78.50;;;;;;4940685;29;20699;-91
2021/10/08 08:24:22;;;;;;;46.70;27.00;;;12.80;78.70;;;;;;4941783;29;20687;-91
2021/10/08 08:26:47;;;;;;;61.57;27.07;;;12.90;78.40;;;;;;4942097;29;20470;-91
2021/10/08 08:29:13;;;;;;;48.03;25.70;;;13.00;78.00;;;;;;4944398;29;20657;-91
2021/10/08 08:31:41;;;;;;;45.30;25.00;;;13.00;78.20;;;;;;4944660;29;20207;-91
2021/10/08 08:34:06;;;;;;;43.25;24.23;;;13.10;78.40;;;;;;4941963;29;20216;-91
2021/10/08 08:36:32;;;;;;;44.97;23.67;;;13.30;78.20;;;;;;4958700;29;20184;-93
2021/10/08 08:39:03;;;;;;;49.10;25.73;;;13.40;77.20;;;;;;4941796;29;20408;-91
2021/10/08 08:41:29;;;;;;;42.30;25.25;;;13.40;76.90;;;;;;4957609;29;20573;-92
2021/10/08 08:43:55;;;;;;;36.80;22.80;;;13.50;76.50;;;;;;4940399;29;20218;-91
2021/10/08 08:46:21;;;;;;;42.13;23.77;;;13.50;76.30;;;;;;4939870;29;20259;-92
2021/10/08 08:48:47;;;;;;;45.10;24.42;;;13.50;76.20;;;;;;4940159;29;20416;-92
2021/10/08 08:51:13;;;;;;;41.73;25.50;;;13.60;76.50;;;;;;4939588;29;20200;-92
2021/10/08 08:53:38;;;;;;;50.00;27.60;;;13.60;76.50;;;;;;4939578;29;20499;-92
2021/10/08 08:56:05;;;;;;;54.50;27.27;;;13.50;76.70;;;;;;4940799;29;20436;-92
2021/10/08 08:58:30;;;;;;;47.92;26.77;;;13.40;76.70;;;;;;4940180;29;20180;-91
2021/10/08 09:01:01;;;;;;;47.97;28.73;;;13.40;76.90;;;;;;4939953;29;20180;-91
2021/10/08 09:03:27;;;;;;;41.85;26.33;;;13.40;77.30;;;;;;4956999;28;20582;-92
2021/10/08 09:05:54;;;;;;;58.50;28.42;;;13.20;77.40;;;;;;4939548;29;20258;-91
2021/10/08 09:08:32;;;;;;;51.53;29.13;;;13.30;77.70;;;;;;4940935;29;20188;-92
2021/10/08 09:11:00;;;;;;;45.78;27.48;;;13.30;77.80;;;;;;4942300;29;20649;-92
2021/10/08 09:13:27;;;;;;;48.45;27.90;;;13.20;77.90;;;;;;4939817;29;20219;-91
2021/10/08 09:16:02;;;;;;;53.95;28.77;;;13.10;78.40;;;;;;4939781;29;20537;-91
2021/10/08 09:18:30;;;;;;;49.05;26.45;;;13.20;78.60;;;;;;4955783;29;20242;-92
2021/10/08 09:21:11;;;;;;;50.63;29.00;;;13.20;78.60;;;;;;4942981;29;20275;-91
2021/10/08 09:23:48;;;;;;;48.83;27.40;;;13.30;78.80;;;;;;4925678;29;20231;-92
2021/10/08 09:26:25;;;;;;;46.03;27.77;;;13.40;78.80;;;;;;4926150;29;20194;-92
2021/10/08 09:29:03;;;;;;;51.55;27.73;;;13.50;78.90;;;;;;4957165;29;20172;-91
2021/10/08 09:31:51;;;;;;;53.00;26.20;;;13.70;78.70;;;;;;4939073;29;20191;-92
2021/10/08 09:34:21;;;;;;;51.28;26.75;;;13.70;78.60;;;;;;4941587;29;20219;-92
2021/10/08 09:36:53;;;;;;;46.75;27.25;;;13.70;78.50;;;;;;4941887;28;20188;-91
2021/10/08 09:39:28;;;;;;;48.55;27.42;;;13.80;78.40;;;;;;4942201;29;20168;-91
2021/10/08 09:42:12;;;;;;;45.38;26.08;;;14.00;78.30;;;;;;4942066;29;20168;-92
2021/10/08 09:44:51;;;;;;;43.85;24.23;;;14.00;78.40;;;;;;4942920;29;20219;-91
2021/10/08 09:47:22;;;;;;;40.90;25.15;;;14.00;78.30;;;;;;4944574;29;20192;-91
2021/10/08 09:49:50;;;;;;;43.90;25.40;;;14.20;78.30;;;;;;4939365;29;20192;-92
2021/10/08 09:52:20;;;;;;;46.83;24.30;;;14.20;78.20;;;;;;4923165;28;20189;-92
2021/10/08 09:54:50;;;;;;;40.22;24.00;;;14.30;78.30;;;;;;4938727;29;20204;-92
2021/10/08 09:57:17;;;;;;;39.13;23.55;;;14.30;77.90;;;;;;4940023;29;20181;-92
2021/10/08 09:59:42;;;;;;;32.70;20.10;;;14.50;77.60;;;;;;4938655;29;20264;-92
2021/10/08 10:02:08;;;;;;;37.73;21.37;;;14.40;77.20;;;;;;4938878;29;20181;-92
2021/10/08 10:04:49;;;;;;;37.53;23.83;;;14.40;76.80;;;;;;4939352;29;20530;-92
2021/10/08 10:07:17;;;;;;;33.33;20.00;;;14.40;77.00;;;;;;4939096;29;20236;-92
2021/10/08 10:09:44;;;;;;;33.85;20.30;;;14.60;77.20;;;;;;4956133;29;20188;-92
2021/10/08 10:12:10;;;;;;;34.67;20.42;;;14.70;76.60;;;;;;4938869;29;20226;-92
2021/10/08 10:14:39;;;;;;;28.00;17.40;;;14.80;76.00;;;;;;4939078;29;20208;-92
2021/10/08 10:17:06;;;;;;;33.13;18.38;;;14.90;75.40;;;;;;4939021;29;20255;-92
2021/10/08 10:19:33;;;;;;;29.88;18.77;;;14.90;75.20;;;;;;4923537;29;20204;-92
2021/10/08 10:22:00;;;;;;;29.77;18.13;;;15.20;75.00;;;;;;4939073;29;20267;-92
2021/10/08 10:24:27;;;;;;;28.00;19.23;;;15.40;74.60;;;;;;4939140;29;20208;-92
2021/10/08 10:26:53;;;;;;;29.05;16.20;;;15.30;74.20;;;;;;4939087;29;20235;-92
2021/10/08 10:29:21;;;;;;;34.15;17.65;;;15.30;73.80;;;;;;4938896;29;20677;-92
2021/10/08 10:31:48;;;;;;;27.52;16.90;;;15.30;73.10;;;;;;4938741;29;20663;-92
2021/10/08 10:34:14;;;;;;;25.27;16.83;;;15.40;73.40;;;;;;4938582;29;20212;-92
2021/10/08 10:36:43;;;;;;;28.33;15.23;;;15.20;73.20;;;;;;4939377;29;20268;-92
2021/10/08 10:39:12;;;;;;;25.08;15.65;;;15.30;73.00;;;;;;4923371;29;20193;-92
2021/10/08 10:41:39;;;;;;;21.17;13.98;;;15.40;72.70;;;;;;4938854;29;20243;-92
2021/10/08 10:44:38;;;;;;;24.65;16.08;;;15.30;72.60;;;;;;4939628;28;20280;-92
2021/10/08 10:47:27;;;;;;;22.20;15.00;;;15.40;72.40;;;;;;4939004;29;20268;-91
2021/10/08 10:50:15;;;;;;;25.38;14.77;;;15.30;71.90;;;;;;4940234;29;20185;-91
2021/10/08 10:52:56;;;;;;;24.40;15.13;;;15.40;71.50;;;;;;4959399;28;20216;-90
2021/10/08 10:55:23;;;;;;;24.23;13.98;;;15.60;71.40;;;;;;4943130;29;20621;-91
2021/10/08 10:57:55;;;;;;;24.30;13.00;;;15.70;70.90;;;;;;4959867;28;20192;-92
2021/10/08 11:00:32;;;;;;;22.50;13.65;;;15.70;70.50;;;;;;4942361;29;20257;-91
2021/10/08 11:03:07;;;;;;;21.63;13.63;;;15.90;70.70;;;;;;4942505;29;20235;-91
2021/10/08 11:05:37;;;;;;;20.83;13.73;;;16.00;69.70;;;;;;4942269;29;20266;-91
2021/10/08 11:08:06;;;;;;;20.60;12.82;;;16.00;68.80;;;;;;4943030;29;20185;-92
2021/10/08 11:10:32;;;;;;;22.90;12.77;;;16.20;68.80;;;;;;4943394;29;20260;-91
2021/10/08 11:13:27;;;;;;;16.63;12.18;;;16.10;68.70;;;;;;4934199;29;20219;-91
2021/10/08 11:15:53;;;;;;;12.68;10.75;;;16.40;68.40;;;;;;4942547;29;20180;-91
2021/10/08 11:18:41;;;;;;;12.70;8.30;;;16.40;67.00;;;;;;4942533;29;20546;-91
2021/10/08 11:21:09;;;;;;;13.35;9.68;;;16.50;65.90;;;;;;4959934;28;20181;-91
2021/10/08 11:23:37;;;;;;;14.07;9.43;;;16.40;65.30;;;;;;4926793;29;20215;-91
2021/10/08 11:26:15;;;;;;;12.57;8.38;;;16.40;64.70;;;;;;4942787;29;20193;-91
2021/10/08 11:28:47;;;;;;;11.05;8.38;;;16.50;64.60;;;;;;4943766;29;20195;-91
2021/10/08 11:31:18;;;;;;;9.65;8.05;;;16.70;65.00;;;;;;4960670;28;20191;-92
2021/10/08 11:33:45;;;;;;;8.20;7.30;;;16.90;65.10;;;;;;4942651;29;20564;-91
2021/10/08 11:36:34;;;;;;;11.20;8.75;;;17.00;64.00;;;;;;4943179;29;20250;-92
2021/10/08 11:39:18;;;;;;;13.07;8.60;;;17.00;63.60;;;;;;4932976;29;20181;-91
2021/10/08 11:42:16;;;;;;;9.25;6.35;;;17.00;63.00;;;;;;4923491;29;20188;-92
2021/10/08 11:52:57;;;;;;;7.82;5.93;;;17.30;61.40;;;;;;4942137;29;20209;-92
2021/10/08 11:55:27;;;;;;;8.60;6.22;;;17.60;62.10;;;;;;4925162;29;20599;-92
2021/10/08 11:58:15;;;;;;;7.30;5.68;;;17.70;60.50;;;;;;4925351;29;20181;-92
2021/10/08 12:00:47;;;;;;;9.70;7.55;;;17.60;60.10;;;;;;4957178;28;20196;-92
2021/10/08 12:03:19;;;;;;;6.88;6.18;;;17.40;61.20;;;;;;4943984;29;20617;-92
2021/10/08 12:05:58;;;;;;;7.55;6.75;;;17.40;59.50;;;;;;4943780;29;20169;-92
2021/10/08 12:08:34;;;;;;;8.85;5.88;;;17.50;60.20;;;;;;4944539;29;20647;-92
2021/10/08 12:11:02;;;;;;;12.27;6.80;;;17.50;59.70;;;;;;4944070;29;20195;-92
2021/10/08 12:13:45;;;;;;;9.05;6.65;;;17.60;60.10;;;;;;4941735;29;20299;-92
2021/10/08 12:16:13;;;;;;;12.02;8.10;;;17.60;59.80;;;;;;4942121;29;20177;-92
2021/10/08 12:18:58;;;;;;;9.48;6.45;;;17.50;59.70;;;;;;4942587;29;20187;-92
2021/10/08 12:21:42;;;;;;;9.23;7.28;;;17.60;60.00;;;;;;4959501;29;20215;-92
2021/10/08 12:24:19;;;;;;;8.68;7.18;;;17.70;60.30;;;;;;4941380;29;20204;-92
2021/10/08 12:26:56;;;;;;;9.35;6.63;;;17.50;60.20;;;;;;4941749;29;20168;-91
2021/10/08 12:29:23;;;;;;;12.38;8.65;;;17.50;60.50;;;;;;4942162;29;20195;-91
2021/10/08 12:31:57;;;;;;;9.13;6.75;;;17.50;60.50;;;;;;4941365;29;20184;-92
2021/10/08 12:34:40;;;;;;;6.50;5.90;;;17.60;60.20;;;;;;4942031;29;20250;-91
2021/10/08 12:37:11;;;;;;;13.02;5.65;;;17.60;59.10;;;;;;4942048;29;20255;-91
2021/10/08 12:39:42;;;;;;;8.25;6.05;;;17.50;58.30;;;;;;4959242;29;20169;-91
2021/10/08 12:42:14;;;;;;;7.25;4.93;;;17.60;58.20;;;;;;4941779;29;20190;-91
2021/10/08 12:45:20;;;;;;;11.73;5.55;;;17.60;58.10;;;;;;4941907;29;20260;-91
2021/10/08 12:47:46;;;;;;;5.55;4.03;;;17.70;57.40;;;;;;4943541;28;20192;-92